sensor_id;sensor_type;location;lat;lon;timestamp;P1;durP1;ratioP1;P2;durP2;ratioP2
14040;SDS011;7095;51.388;6.196;2023-07-28T00:01:04;7.80;;;5.40;;
14040;SDS011;7095;51.388;6.196;2023-07-28T00:03:32;6.27;;;5.50;;
14040;SDS011;7095;51.388;6.196;2023-07-28T00:06:01;7.83;;;5.57;;
14040;SDS011;7095;51.388;6.196;2023-07-28T00:08:29;7.97;;;5.73;;
14040;SDS011;7095;51.388;6.196;2023-07-28T00:10:59;11.93;;;5.43;;
14040;SDS011;7095;51.388;6.196;2023-07-28T00:13:27;11.87;;;5.77;;
14040;SDS011;7095;51.388;6.196;2023-07-28T00:15:56;8.90;;;6.20;;
14040;SDS011;7095;51.388;6.196;2023-07-28T00:18:24;15.93;;;6.07;;
14040;SDS011;7095;51.388;6.196;2023-07-28T00:20:53;9.03;;;5.87;;
14040;SDS011;7095;51.388;6.196;2023-07-28T00:23:21;11.60;;;6.63;;
14040;SDS011;7095;51.388;6.196;2023-07-28T00:25:49;9.57;;;5.80;;
14040;SDS011;7095;51.388;6.196;2023-07-28T00:28:19;8.83;;;6.50;;
14040;SDS011;7095;51.388;6.196;2023-07-28T00:30:48;8.60;;;6.30;;
14040;SDS011;7095;51.388;6.196;2023-07-28T00:33:17;9.93;;;6.43;;
14040;SDS011;7095;51.388;6.196;2023-07-28T00:35:46;7.07;;;5.80;;
14040;SDS011;7095;51.388;6.196;2023-07-28T00:38:14;9.03;;;6.20;;
14040;SDS011;7095;51.388;6.196;2023-07-28T00:40:43;8.07;;;5.43;;
14040;SDS011;7095;51.388;6.196;2023-07-28T00:43:12;8.00;;;6.40;;
14040;SDS011;7095;51.388;6.196;2023-07-28T00:45:42;8.50;;;5.90;;
14040;SDS011;7095;51.388;6.196;2023-07-28T00:48:12;8.47;;;6.40;;
14040;SDS011;7095;51.388;6.196;2023-07-28T00:50:41;8.77;;;5.87;;
14040;SDS011;7095;51.388;6.196;2023-07-28T00:53:11;10.07;;;6.07;;
14040;SDS011;7095;51.388;6.196;2023-07-28T00:55:40;10.87;;;6.20;;
14040;SDS011;7095;51.388;6.196;2023-07-28T00:58:09;8.67;;;5.87;;
14040;SDS011;7095;51.388;6.196;2023-07-28T01:00:37;6.97;;;5.63;;
14040;SDS011;7095;51.388;6.196;2023-07-28T01:03:08;10.40;;;6.53;;
14040;SDS011;7095;51.388;6.196;2023-07-28T01:05:39;8.37;;;5.70;;
14040;SDS011;7095;51.388;6.196;2023-07-28T01:08:16;10.20;;;5.97;;
14040;SDS011;7095;51.388;6.196;2023-07-28T01:10:50;9.23;;;5.53;;
14040;SDS011;7095;51.388;6.196;2023-07-28T01:13:19;8.30;;;6.00;;
14040;SDS011;7095;51.388;6.196;2023-07-28T01:15:48;9.50;;;6.27;;
14040;SDS011;7095;51.388;6.196;2023-07-28T01:18:18;6.83;;;5.77;;
14040;SDS011;7095;51.388;6.196;2023-07-28T01:20:46;6.50;;;5.50;;
14040;SDS011;7095;51.388;6.196;2023-07-28T01:23:30;9.93;;;5.60;;
14040;SDS011;7095;51.388;6.196;2023-07-28T01:26:10;7.23;;;6.00;;
14040;SDS011;7095;51.388;6.196;2023-07-28T01:28:41;7.07;;;5.90;;
14040;SDS011;7095;51.388;6.196;2023-07-28T01:31:11;7.53;;;6.40;;
14040;SDS011;7095;51.388;6.196;2023-07-28T01:33:40;8.47;;;6.50;;
14040;SDS011;7095;51.388;6.196;2023-07-28T01:36:08;6.73;;;6.00;;
14040;SDS011;7095;51.388;6.196;2023-07-28T01:38:37;9.17;;;6.00;;
14040;SDS011;7095;51.388;6.196;2023-07-28T01:41:05;11.20;;;6.63;;
14040;SDS011;7095;51.388;6.196;2023-07-28T01:43:36;8.43;;;5.90;;
14040;SDS011;7095;51.388;6.196;2023-07-28T01:46:06;7.07;;;5.93;;
14040;SDS011;7095;51.388;6.196;2023-07-28T01:48:35;9.37;;;5.80;;
14040;SDS011;7095;51.388;6.196;2023-07-28T01:51:03;8.77;;;6.20;;
14040;SDS011;7095;51.388;6.196;2023-07-28T01:53:32;8.67;;;6.30;;
14040;SDS011;7095;51.388;6.196;2023-07-28T01:56:00;9.43;;;6.03;;
14040;SDS011;7095;51.388;6.196;2023-07-28T01:58:28;8.00;;;6.10;;
14040;SDS011;7095;51.388;6.196;2023-07-28T02:00:57;9.70;;;6.43;;
14040;SDS011;7095;51.388;6.196;2023-07-28T02:03:26;7.27;;;5.97;;
14040;SDS011;7095;51.388;6.196;2023-07-28T02:05:55;8.17;;;6.20;;
14040;SDS011;7095;51.388;6.196;2023-07-28T02:08:23;7.53;;;6.23;;
14040;SDS011;7095;51.388;6.196;2023-07-28T02:10:53;9.07;;;5.63;;
14040;SDS011;7095;51.388;6.196;2023-07-28T02:13:21;7.07;;;5.60;;
14040;SDS011;7095;51.388;6.196;2023-07-28T02:15:50;10.00;;;5.83;;
14040;SDS011;7095;51.388;6.196;2023-07-28T02:18:18;7.57;;;5.60;;
14040;SDS011;7095;51.388;6.196;2023-07-28T02:20:48;12.43;;;6.23;;
14040;SDS011;7095;51.388;6.196;2023-07-28T02:23:17;9.83;;;6.10;;
14040;SDS011;7095;51.388;6.196;2023-07-28T02:25:45;8.27;;;5.47;;
14040;SDS011;7095;51.388;6.196;2023-07-28T02:28:14;7.50;;;5.80;;
14040;SDS011;7095;51.388;6.196;2023-07-28T02:30:42;6.90;;;6.00;;
14040;SDS011;7095;51.388;6.196;2023-07-28T02:33:11;9.73;;;6.47;;
14040;SDS011;7095;51.388;6.196;2023-07-28T02:35:39;9.67;;;6.17;;
14040;SDS011;7095;51.388;6.196;2023-07-28T02:38:09;8.13;;;6.10;;
14040;SDS011;7095;51.388;6.196;2023-07-28T02:40:37;8.67;;;6.53;;
14040;SDS011;7095;51.388;6.196;2023-07-28T02:43:06;7.83;;;6.10;;
14040;SDS011;7095;51.388;6.196;2023-07-28T02:45:34;8.27;;;6.03;;
14040;SDS011;7095;51.388;6.196;2023-07-28T02:48:03;9.73;;;6.27;;
14040;SDS011;7095;51.388;6.196;2023-07-28T02:50:32;11.40;;;6.30;;
14040;SDS011;7095;51.388;6.196;2023-07-28T02:53:00;7.47;;;6.00;;
14040;SDS011;7095;51.388;6.196;2023-07-28T02:55:30;9.03;;;6.00;;
14040;SDS011;7095;51.388;6.196;2023-07-28T02:58:00;13.63;;;6.33;;
14040;SDS011;7095;51.388;6.196;2023-07-28T03:00:28;8.00;;;6.60;;
14040;SDS011;7095;51.388;6.196;2023-07-28T03:02:56;10.37;;;7.13;;
14040;SDS011;7095;51.388;6.196;2023-07-28T03:05:25;9.93;;;7.03;;
14040;SDS011;7095;51.388;6.196;2023-07-28T03:08:14;9.23;;;6.57;;
14040;SDS011;7095;51.388;6.196;2023-07-28T03:10:44;10.77;;;6.63;;
14040;SDS011;7095;51.388;6.196;2023-07-28T03:13:12;11.60;;;7.07;;
14040;SDS011;7095;51.388;6.196;2023-07-28T03:15:41;9.17;;;7.03;;
14040;SDS011;7095;51.388;6.196;2023-07-28T03:18:10;11.73;;;7.17;;
14040;SDS011;7095;51.388;6.196;2023-07-28T03:20:38;12.10;;;7.23;;
14040;SDS011;7095;51.388;6.196;2023-07-28T03:23:07;8.87;;;6.60;;
14040;SDS011;7095;51.388;6.196;2023-07-28T03:25:35;9.43;;;6.27;;
14040;SDS011;7095;51.388;6.196;2023-07-28T03:28:05;12.73;;;6.53;;
14040;SDS011;7095;51.388;6.196;2023-07-28T03:30:34;11.67;;;6.17;;
14040;SDS011;7095;51.388;6.196;2023-07-28T03:33:03;9.20;;;6.53;;
14040;SDS011;7095;51.388;6.196;2023-07-28T03:35:31;9.00;;;6.73;;
14040;SDS011;7095;51.388;6.196;2023-07-28T03:38:09;10.17;;;6.63;;
14040;SDS011;7095;51.388;6.196;2023-07-28T03:40:39;10.17;;;6.50;;
14040;SDS011;7095;51.388;6.196;2023-07-28T03:43:09;12.20;;;7.17;;
14040;SDS011;7095;51.388;6.196;2023-07-28T03:45:38;14.67;;;6.70;;
14040;SDS011;7095;51.388;6.196;2023-07-28T03:48:06;12.03;;;6.43;;
14040;SDS011;7095;51.388;6.196;2023-07-28T03:50:35;14.23;;;7.13;;
14040;SDS011;7095;51.388;6.196;2023-07-28T03:53:04;12.57;;;6.23;;
14040;SDS011;7095;51.388;6.196;2023-07-28T03:55:32;9.33;;;6.47;;
14040;SDS011;7095;51.388;6.196;2023-07-28T03:58:01;9.93;;;6.07;;
14040;SDS011;7095;51.388;6.196;2023-07-28T04:00:31;9.33;;;6.00;;
14040;SDS011;7095;51.388;6.196;2023-07-28T04:02:59;10.73;;;6.00;;
14040;SDS011;7095;51.388;6.196;2023-07-28T04:05:28;9.10;;;6.37;;
14040;SDS011;7095;51.388;6.196;2023-07-28T04:07:56;13.97;;;6.30;;
14040;SDS011;7095;51.388;6.196;2023-07-28T04:10:25;11.03;;;6.60;;
14040;SDS011;7095;51.388;6.196;2023-07-28T04:12:53;9.87;;;6.43;;
14040;SDS011;7095;51.388;6.196;2023-07-28T04:15:22;11.50;;;6.60;;
14040;SDS011;7095;51.388;6.196;2023-07-28T04:17:51;11.37;;;7.13;;
14040;SDS011;7095;51.388;6.196;2023-07-28T04:20:20;12.97;;;6.93;;
14040;SDS011;7095;51.388;6.196;2023-07-28T04:22:48;9.87;;;6.83;;
14040;SDS011;7095;51.388;6.196;2023-07-28T04:25:17;11.40;;;7.20;;
14040;SDS011;7095;51.388;6.196;2023-07-28T04:27:47;10.10;;;6.60;;
14040;SDS011;7095;51.388;6.196;2023-07-28T04:30:16;9.70;;;6.60;;
14040;SDS011;7095;51.388;6.196;2023-07-28T04:32:44;12.33;;;7.10;;
14040;SDS011;7095;51.388;6.196;2023-07-28T04:35:19;14.17;;;7.30;;
14040;SDS011;7095;51.388;6.196;2023-07-28T04:37:57;16.87;;;7.40;;
14040;SDS011;7095;51.388;6.196;2023-07-28T04:40:52;11.90;;;7.50;;
14040;SDS011;7095;51.388;6.196;2023-07-28T04:43:27;14.37;;;7.30;;
14040;SDS011;7095;51.388;6.196;2023-07-28T04:45:56;12.50;;;7.47;;
14040;SDS011;7095;51.388;6.196;2023-07-28T04:48:25;13.17;;;7.30;;
14040;SDS011;7095;51.388;6.196;2023-07-28T04:50:56;15.40;;;8.47;;
14040;SDS011;7095;51.388;6.196;2023-07-28T04:53:44;15.73;;;8.97;;
14040;SDS011;7095;51.388;6.196;2023-07-28T04:56:20;18.07;;;9.57;;
14040;SDS011;7095;51.388;6.196;2023-07-28T04:58:48;15.47;;;8.10;;
14040;SDS011;7095;51.388;6.196;2023-07-28T05:01:17;17.13;;;8.33;;
14040;SDS011;7095;51.388;6.196;2023-07-28T05:03:46;16.87;;;8.10;;
14040;SDS011;7095;51.388;6.196;2023-07-28T05:06:21;13.23;;;8.27;;
14040;SDS011;7095;51.388;6.196;2023-07-28T05:08:49;13.33;;;8.17;;
14040;SDS011;7095;51.388;6.196;2023-07-28T05:11:25;12.87;;;7.70;;
14040;SDS011;7095;51.388;6.196;2023-07-28T05:13:53;16.00;;;8.83;;
14040;SDS011;7095;51.388;6.196;2023-07-28T05:16:21;15.67;;;8.77;;
14040;SDS011;7095;51.388;6.196;2023-07-28T05:19:08;18.93;;;9.17;;
14040;SDS011;7095;51.388;6.196;2023-07-28T05:21:57;16.07;;;9.07;;
14040;SDS011;7095;51.388;6.196;2023-07-28T05:24:35;13.30;;;8.03;;
14040;SDS011;7095;51.388;6.196;2023-07-28T05:27:04;17.23;;;9.13;;
14040;SDS011;7095;51.388;6.196;2023-07-28T05:29:33;19.07;;;9.77;;
14040;SDS011;7095;51.388;6.196;2023-07-28T05:32:05;26.47;;;12.70;;
14040;SDS011;7095;51.388;6.196;2023-07-28T05:34:55;27.87;;;12.13;;
14040;SDS011;7095;51.388;6.196;2023-07-28T05:37:25;25.93;;;11.83;;
14040;SDS011;7095;51.388;6.196;2023-07-28T05:39:53;25.87;;;12.83;;
14040;SDS011;7095;51.388;6.196;2023-07-28T05:42:22;24.10;;;12.53;;
14040;SDS011;7095;51.388;6.196;2023-07-28T05:44:52;28.97;;;12.70;;
14040;SDS011;7095;51.388;6.196;2023-07-28T05:47:22;32.93;;;14.63;;
14040;SDS011;7095;51.388;6.196;2023-07-28T05:49:51;37.30;;;16.37;;
14040;SDS011;7095;51.388;6.196;2023-07-28T05:52:21;37.23;;;17.60;;
14040;SDS011;7095;51.388;6.196;2023-07-28T05:54:51;40.23;;;17.10;;
14040;SDS011;7095;51.388;6.196;2023-07-28T05:57:21;39.57;;;19.13;;
14040;SDS011;7095;51.388;6.196;2023-07-28T05:59:49;40.93;;;19.73;;
14040;SDS011;7095;51.388;6.196;2023-07-28T06:02:18;47.10;;;20.47;;
14040;SDS011;7095;51.388;6.196;2023-07-28T06:04:53;53.57;;;21.27;;
14040;SDS011;7095;51.388;6.196;2023-07-28T06:07:22;49.17;;;22.03;;
14040;SDS011;7095;51.388;6.196;2023-07-28T06:09:51;56.20;;;23.83;;
14040;SDS011;7095;51.388;6.196;2023-07-28T06:12:20;55.40;;;24.60;;
14040;SDS011;7095;51.388;6.196;2023-07-28T06:14:49;57.90;;;25.03;;
14040;SDS011;7095;51.388;6.196;2023-07-28T06:17:18;58.97;;;26.97;;
14040;SDS011;7095;51.388;6.196;2023-07-28T06:19:46;64.43;;;25.97;;
14040;SDS011;7095;51.388;6.196;2023-07-28T06:22:16;65.90;;;27.20;;
14040;SDS011;7095;51.388;6.196;2023-07-28T06:24:45;52.30;;;25.27;;
14040;SDS011;7095;51.388;6.196;2023-07-28T06:27:15;53.80;;;24.03;;
14040;SDS011;7095;51.388;6.196;2023-07-28T06:29:43;57.43;;;26.30;;
14040;SDS011;7095;51.388;6.196;2023-07-28T06:32:13;51.93;;;25.17;;
14040;SDS011;7095;51.388;6.196;2023-07-28T06:34:42;58.27;;;24.87;;
14040;SDS011;7095;51.388;6.196;2023-07-28T06:37:10;46.20;;;21.90;;
14040;SDS011;7095;51.388;6.196;2023-07-28T06:39:39;45.37;;;20.63;;
14040;SDS011;7095;51.388;6.196;2023-07-28T06:42:08;36.83;;;19.80;;
14040;SDS011;7095;51.388;6.196;2023-07-28T06:44:40;37.80;;;19.23;;
14040;SDS011;7095;51.388;6.196;2023-07-28T06:47:08;29.33;;;17.40;;
14040;SDS011;7095;51.388;6.196;2023-07-28T06:49:37;34.23;;;18.63;;
14040;SDS011;7095;51.388;6.196;2023-07-28T06:52:05;30.37;;;17.90;;
14040;SDS011;7095;51.388;6.196;2023-07-28T06:54:35;30.70;;;17.23;;
14040;SDS011;7095;51.388;6.196;2023-07-28T06:57:06;26.60;;;16.07;;
14040;SDS011;7095;51.388;6.196;2023-07-28T06:59:37;24.47;;;15.77;;
14040;SDS011;7095;51.388;6.196;2023-07-28T07:02:07;22.80;;;15.20;;
14040;SDS011;7095;51.388;6.196;2023-07-28T07:04:38;23.63;;;16.60;;
14040;SDS011;7095;51.388;6.196;2023-07-28T07:07:07;23.10;;;16.53;;
14040;SDS011;7095;51.388;6.196;2023-07-28T07:09:36;22.00;;;15.27;;
14040;SDS011;7095;51.388;6.196;2023-07-28T07:12:05;22.20;;;15.63;;
14040;SDS011;7095;51.388;6.196;2023-07-28T07:14:36;23.17;;;15.63;;
14040;SDS011;7095;51.388;6.196;2023-07-28T07:17:05;19.17;;;14.50;;
14040;SDS011;7095;51.388;6.196;2023-07-28T07:19:36;19.63;;;14.40;;
14040;SDS011;7095;51.388;6.196;2023-07-28T07:22:05;19.00;;;12.90;;
14040;SDS011;7095;51.388;6.196;2023-07-28T07:24:33;17.13;;;11.83;;
14040;SDS011;7095;51.388;6.196;2023-07-28T07:27:04;16.30;;;10.57;;
14040;SDS011;7095;51.388;6.196;2023-07-28T07:29:36;14.40;;;9.93;;
14040;SDS011;7095;51.388;6.196;2023-07-28T07:32:05;12.63;;;9.67;;
14040;SDS011;7095;51.388;6.196;2023-07-28T07:34:36;10.00;;;7.77;;
14040;SDS011;7095;51.388;6.196;2023-07-28T07:37:05;11.67;;;8.47;;
14040;SDS011;7095;51.388;6.196;2023-07-28T07:39:35;11.17;;;8.70;;
14040;SDS011;7095;51.388;6.196;2023-07-28T07:42:03;9.20;;;7.73;;
14040;SDS011;7095;51.388;6.196;2023-07-28T07:44:35;8.50;;;6.63;;
14040;SDS011;7095;51.388;6.196;2023-07-28T07:47:13;8.43;;;6.97;;
14040;SDS011;7095;51.388;6.196;2023-07-28T07:49:45;12.23;;;7.57;;
14040;SDS011;7095;51.388;6.196;2023-07-28T07:52:14;9.20;;;7.23;;
14040;SDS011;7095;51.388;6.196;2023-07-28T07:54:44;8.43;;;7.53;;
14040;SDS011;7095;51.388;6.196;2023-07-28T07:57:13;10.60;;;7.27;;
14040;SDS011;7095;51.388;6.196;2023-07-28T07:59:43;24.93;;;10.13;;
14040;SDS011;7095;51.388;6.196;2023-07-28T08:02:12;9.63;;;7.73;;
14040;SDS011;7095;51.388;6.196;2023-07-28T08:04:42;7.57;;;6.77;;
14040;SDS011;7095;51.388;6.196;2023-07-28T08:07:12;9.50;;;6.87;;
14040;SDS011;7095;51.388;6.196;2023-07-28T08:09:43;7.67;;;6.60;;
14040;SDS011;7095;51.388;6.196;2023-07-28T08:12:12;8.17;;;6.27;;
14040;SDS011;7095;51.388;6.196;2023-07-28T08:14:42;6.77;;;5.57;;
14040;SDS011;7095;51.388;6.196;2023-07-28T08:17:13;7.13;;;6.03;;
14040;SDS011;7095;51.388;6.196;2023-07-28T08:22:48;7.17;;;6.40;;
14040;SDS011;7095;51.388;6.196;2023-07-28T08:25:19;11.40;;;6.73;;
14040;SDS011;7095;51.388;6.196;2023-07-28T08:28:45;9.47;;;7.87;;
14040;SDS011;7095;51.388;6.196;2023-07-28T08:31:14;8.13;;;6.77;;
14040;SDS011;7095;51.388;6.196;2023-07-28T08:33:43;8.20;;;6.80;;
14040;SDS011;7095;51.388;6.196;2023-07-28T08:36:12;7.27;;;6.57;;
14040;SDS011;7095;51.388;6.196;2023-07-28T08:38:43;9.00;;;7.53;;
14040;SDS011;7095;51.388;6.196;2023-07-28T08:41:12;8.83;;;7.00;;
14040;SDS011;7095;51.388;6.196;2023-07-28T08:43:41;11.40;;;6.90;;
14040;SDS011;7095;51.388;6.196;2023-07-28T08:46:10;12.47;;;7.47;;
14040;SDS011;7095;51.388;6.196;2023-07-28T08:48:40;8.97;;;7.23;;
14040;SDS011;7095;51.388;6.196;2023-07-28T08:51:09;7.97;;;7.00;;
14040;SDS011;7095;51.388;6.196;2023-07-28T08:53:43;14.50;;;7.47;;
14040;SDS011;7095;51.388;6.196;2023-07-28T08:56:12;11.90;;;7.80;;
14040;SDS011;7095;51.388;6.196;2023-07-28T08:58:41;8.10;;;6.30;;
14040;SDS011;7095;51.388;6.196;2023-07-28T09:01:11;10.10;;;6.87;;
14040;SDS011;7095;51.388;6.196;2023-07-28T09:03:41;9.67;;;6.40;;
14040;SDS011;7095;51.388;6.196;2023-07-28T09:06:10;6.67;;;6.07;;
14040;SDS011;7095;51.388;6.196;2023-07-28T09:08:38;8.37;;;6.53;;
14040;SDS011;7095;51.388;6.196;2023-07-28T09:11:10;6.90;;;6.20;;
14040;SDS011;7095;51.388;6.196;2023-07-28T09:13:41;8.47;;;5.60;;
14040;SDS011;7095;51.388;6.196;2023-07-28T09:16:16;7.23;;;5.77;;
14040;SDS011;7095;51.388;6.196;2023-07-28T09:18:46;6.50;;;5.90;;
14040;SDS011;7095;51.388;6.196;2023-07-28T09:21:17;6.20;;;5.60;;
14040;SDS011;7095;51.388;6.196;2023-07-28T09:23:57;5.13;;;4.63;;
14040;SDS011;7095;51.388;6.196;2023-07-28T09:26:37;6.37;;;5.00;;
14040;SDS011;7095;51.388;6.196;2023-07-28T09:29:14;5.47;;;4.97;;
14040;SDS011;7095;51.388;6.196;2023-07-28T09:31:46;5.97;;;4.70;;
14040;SDS011;7095;51.388;6.196;2023-07-28T09:34:24;6.10;;;4.83;;
14040;SDS011;7095;51.388;6.196;2023-07-28T09:36:54;9.03;;;4.97;;
14040;SDS011;7095;51.388;6.196;2023-07-28T09:39:24;4.37;;;4.03;;
14040;SDS011;7095;51.388;6.196;2023-07-28T09:41:55;6.53;;;3.30;;
14040;SDS011;7095;51.388;6.196;2023-07-28T09:44:27;3.27;;;3.07;;
14040;SDS011;7095;51.388;6.196;2023-07-28T09:46:59;4.70;;;3.20;;
14040;SDS011;7095;51.388;6.196;2023-07-28T09:49:32;3.17;;;2.73;;
14040;SDS011;7095;51.388;6.196;2023-07-28T09:52:04;3.37;;;3.07;;
14040;SDS011;7095;51.388;6.196;2023-07-28T09:54:38;3.67;;;2.90;;
14040;SDS011;7095;51.388;6.196;2023-07-28T09:57:11;4.50;;;2.70;;
14040;SDS011;7095;51.388;6.196;2023-07-28T09:59:41;5.10;;;2.40;;
14040;SDS011;7095;51.388;6.196;2023-07-28T10:02:13;5.37;;;2.70;;
14040;SDS011;7095;51.388;6.196;2023-07-28T10:04:43;4.20;;;2.60;;
14040;SDS011;7095;51.388;6.196;2023-07-28T10:07:12;3.47;;;2.57;;
14040;SDS011;7095;51.388;6.196;2023-07-28T10:09:41;1.80;;;1.70;;
14040;SDS011;7095;51.388;6.196;2023-07-28T10:12:18;3.23;;;1.60;;
14040;SDS011;7095;51.388;6.196;2023-07-28T10:14:59;1.73;;;1.47;;
14040;SDS011;7095;51.388;6.196;2023-07-28T10:21:27;2.60;;;2.40;;
14040;SDS011;7095;51.388;6.196;2023-07-28T10:23:57;6.23;;;1.93;;
14040;SDS011;7095;51.388;6.196;2023-07-28T10:26:31;3.20;;;2.20;;
14040;SDS011;7095;51.388;6.196;2023-07-28T10:29:11;2.77;;;2.57;;
14040;SDS011;7095;51.388;6.196;2023-07-28T10:31:51;3.67;;;2.20;;
14040;SDS011;7095;51.388;6.196;2023-07-28T10:34:22;3.10;;;2.53;;
14040;SDS011;7095;51.388;6.196;2023-07-28T10:36:58;2.90;;;2.10;;
14040;SDS011;7095;51.388;6.196;2023-07-28T10:39:27;2.20;;;1.90;;
14040;SDS011;7095;51.388;6.196;2023-07-28T10:42:01;2.30;;;2.20;;
14040;SDS011;7095;51.388;6.196;2023-07-28T10:44:33;4.50;;;1.57;;
14040;SDS011;7095;51.388;6.196;2023-07-28T10:47:02;1.80;;;1.70;;
14040;SDS011;7095;51.388;6.196;2023-07-28T10:49:35;3.00;;;1.80;;
14040;SDS011;7095;51.388;6.196;2023-07-28T10:52:04;1.87;;;1.70;;
14040;SDS011;7095;51.388;6.196;2023-07-28T10:54:33;1.73;;;1.40;;
14040;SDS011;7095;51.388;6.196;2023-07-28T10:57:03;1.10;;;1.10;;
14040;SDS011;7095;51.388;6.196;2023-07-28T10:59:34;3.63;;;1.10;;
14040;SDS011;7095;51.388;6.196;2023-07-28T11:02:06;1.87;;;1.07;;
14040;SDS011;7095;51.388;6.196;2023-07-28T11:04:35;2.40;;;0.63;;
14040;SDS011;7095;51.388;6.196;2023-07-28T11:07:04;2.03;;;0.77;;
14040;SDS011;7095;51.388;6.196;2023-07-28T11:09:34;1.90;;;0.93;;
14040;SDS011;7095;51.388;6.196;2023-07-28T11:12:03;1.40;;;0.90;;
14040;SDS011;7095;51.388;6.196;2023-07-28T11:14:38;0.80;;;0.80;;
14040;SDS011;7095;51.388;6.196;2023-07-28T11:17:08;2.00;;;0.83;;
14040;SDS011;7095;51.388;6.196;2023-07-28T11:19:37;3.37;;;0.70;;
14040;SDS011;7095;51.388;6.196;2023-07-28T11:22:06;2.17;;;0.57;;
14040;SDS011;7095;51.388;6.196;2023-07-28T11:24:35;0.97;;;0.70;;
14040;SDS011;7095;51.388;6.196;2023-07-28T11:27:04;0.80;;;0.80;;
14040;SDS011;7095;51.388;6.196;2023-07-28T11:29:35;1.20;;;0.93;;
14040;SDS011;7095;51.388;6.196;2023-07-28T11:32:06;1.30;;;1.17;;
14040;SDS011;7095;51.388;6.196;2023-07-28T11:34:37;1.57;;;1.17;;
14040;SDS011;7095;51.388;6.196;2023-07-28T11:37:08;1.30;;;1.20;;
14040;SDS011;7095;51.388;6.196;2023-07-28T11:39:38;1.10;;;1.00;;
14040;SDS011;7095;51.388;6.196;2023-07-28T11:42:07;6.00;;;1.00;;
14040;SDS011;7095;51.388;6.196;2023-07-28T11:44:39;1.83;;;0.80;;
14040;SDS011;7095;51.388;6.196;2023-07-28T11:47:08;7.27;;;1.63;;
14040;SDS011;7095;51.388;6.196;2023-07-28T11:49:46;0.70;;;0.70;;
14040;SDS011;7095;51.388;6.196;2023-07-28T11:52:15;3.67;;;0.93;;
14040;SDS011;7095;51.388;6.196;2023-07-28T11:54:50;0.77;;;0.70;;
14040;SDS011;7095;51.388;6.196;2023-07-28T11:57:20;0.87;;;0.60;;
14040;SDS011;7095;51.388;6.196;2023-07-28T11:59:51;1.30;;;0.90;;
14040;SDS011;7095;51.388;6.196;2023-07-28T12:02:24;1.37;;;0.70;;
14040;SDS011;7095;51.388;6.196;2023-07-28T12:04:56;2.10;;;0.83;;
14040;SDS011;7095;51.388;6.196;2023-07-28T12:07:31;1.73;;;0.70;;
14040;SDS011;7095;51.388;6.196;2023-07-28T12:10:03;1.30;;;0.97;;
14040;SDS011;7095;51.388;6.196;2023-07-28T12:12:39;0.67;;;0.67;;
14040;SDS011;7095;51.388;6.196;2023-07-28T12:15:22;4.57;;;1.50;;
14040;SDS011;7095;51.388;6.196;2023-07-28T12:18:01;1.60;;;1.07;;
14040;SDS011;7095;51.388;6.196;2023-07-28T12:20:41;1.30;;;1.00;;
14040;SDS011;7095;51.388;6.196;2023-07-28T12:23:14;2.27;;;0.97;;
14040;SDS011;7095;51.388;6.196;2023-07-28T12:25:47;0.50;;;0.50;;
14040;SDS011;7095;51.388;6.196;2023-07-28T12:28:21;1.10;;;1.00;;
14040;SDS011;7095;51.388;6.196;2023-07-28T12:30:52;1.07;;;0.63;;
14040;SDS011;7095;51.388;6.196;2023-07-28T12:33:23;1.03;;;0.60;;
14040;SDS011;7095;51.388;6.196;2023-07-28T12:36:05;0.70;;;0.70;;
14040;SDS011;7095;51.388;6.196;2023-07-28T12:38:37;3.07;;;0.87;;
14040;SDS011;7095;51.388;6.196;2023-07-28T12:41:09;1.50;;;0.90;;
14040;SDS011;7095;51.388;6.196;2023-07-28T12:43:38;1.87;;;0.80;;
14040;SDS011;7095;51.388;6.196;2023-07-28T12:46:14;1.17;;;0.90;;
14040;SDS011;7095;51.388;6.196;2023-07-28T12:48:44;2.63;;;1.00;;
14040;SDS011;7095;51.388;6.196;2023-07-28T12:51:14;1.13;;;0.80;;
14040;SDS011;7095;51.388;6.196;2023-07-28T12:53:47;3.93;;;0.80;;
14040;SDS011;7095;51.388;6.196;2023-07-28T12:56:16;1.53;;;0.80;;
14040;SDS011;7095;51.388;6.196;2023-07-28T12:59:04;2.50;;;1.13;;
14040;SDS011;7095;51.388;6.196;2023-07-28T13:01:38;13.80;;;1.93;;
14040;SDS011;7095;51.388;6.196;2023-07-28T13:04:08;4.10;;;2.13;;
14040;SDS011;7095;51.388;6.196;2023-07-28T13:06:37;1.60;;;1.20;;
14040;SDS011;7095;51.388;6.196;2023-07-28T13:09:08;18.13;;;3.50;;
14040;SDS011;7095;51.388;6.196;2023-07-28T13:11:41;2.90;;;1.40;;
14040;SDS011;7095;51.388;6.196;2023-07-28T13:14:13;15.00;;;3.37;;
14040;SDS011;7095;51.388;6.196;2023-07-28T13:16:44;9.20;;;1.90;;
14040;SDS011;7095;51.388;6.196;2023-07-28T13:19:20;2.30;;;1.30;;
14040;SDS011;7095;51.388;6.196;2023-07-28T13:21:53;4.23;;;1.83;;
14040;SDS011;7095;51.388;6.196;2023-07-28T13:24:22;6.50;;;1.87;;
14040;SDS011;7095;51.388;6.196;2023-07-28T13:26:51;3.27;;;1.60;;
14040;SDS011;7095;51.388;6.196;2023-07-28T13:29:21;4.40;;;1.60;;
14040;SDS011;7095;51.388;6.196;2023-07-28T13:31:51;5.00;;;1.83;;
14040;SDS011;7095;51.388;6.196;2023-07-28T13:34:25;7.73;;;1.47;;
14040;SDS011;7095;51.388;6.196;2023-07-28T13:36:55;5.70;;;1.50;;
14040;SDS011;7095;51.388;6.196;2023-07-28T13:39:25;5.80;;;1.50;;
14040;SDS011;7095;51.388;6.196;2023-07-28T13:41:54;4.87;;;1.83;;
14040;SDS011;7095;51.388;6.196;2023-07-28T13:44:24;3.07;;;1.30;;
14040;SDS011;7095;51.388;6.196;2023-07-28T13:46:58;1.97;;;1.40;;
14040;SDS011;7095;51.388;6.196;2023-07-28T13:49:28;3.13;;;1.20;;
14040;SDS011;7095;51.388;6.196;2023-07-28T13:51:57;1.03;;;0.70;;
14040;SDS011;7095;51.388;6.196;2023-07-28T13:54:29;1.90;;;1.00;;
14040;SDS011;7095;51.388;6.196;2023-07-28T13:57:19;1.10;;;0.93;;
14040;SDS011;7095;51.388;6.196;2023-07-28T13:59:50;0.87;;;0.70;;
14040;SDS011;7095;51.388;6.196;2023-07-28T14:02:25;5.10;;;1.20;;
14040;SDS011;7095;51.388;6.196;2023-07-28T14:04:58;1.27;;;0.93;;
14040;SDS011;7095;51.388;6.196;2023-07-28T14:07:29;1.13;;;0.90;;
14040;SDS011;7095;51.388;6.196;2023-07-28T14:10:01;3.70;;;1.20;;
14040;SDS011;7095;51.388;6.196;2023-07-28T14:12:34;2.73;;;0.90;;
14040;SDS011;7095;51.388;6.196;2023-07-28T14:15:04;1.60;;;1.07;;
14040;SDS011;7095;51.388;6.196;2023-07-28T14:17:36;4.10;;;1.67;;
14040;SDS011;7095;51.388;6.196;2023-07-28T14:20:08;5.50;;;2.00;;
14040;SDS011;7095;51.388;6.196;2023-07-28T14:22:43;4.00;;;1.60;;
14040;SDS011;7095;51.388;6.196;2023-07-28T14:25:13;2.63;;;1.80;;
14040;SDS011;7095;51.388;6.196;2023-07-28T14:27:47;2.23;;;1.70;;
14040;SDS011;7095;51.388;6.196;2023-07-28T14:30:20;2.00;;;1.50;;
14040;SDS011;7095;51.388;6.196;2023-07-28T14:32:54;2.43;;;1.60;;
14040;SDS011;7095;51.388;6.196;2023-07-28T14:35:24;2.87;;;1.33;;
14040;SDS011;7095;51.388;6.196;2023-07-28T14:37:54;3.07;;;1.40;;
14040;SDS011;7095;51.388;6.196;2023-07-28T14:40:23;1.87;;;1.37;;
14040;SDS011;7095;51.388;6.196;2023-07-28T14:42:52;3.13;;;1.40;;
14040;SDS011;7095;51.388;6.196;2023-07-28T14:45:21;2.30;;;1.43;;
14040;SDS011;7095;51.388;6.196;2023-07-28T14:47:52;1.90;;;1.43;;
14040;SDS011;7095;51.388;6.196;2023-07-28T14:50:25;2.07;;;1.30;;
14040;SDS011;7095;51.388;6.196;2023-07-28T14:52:57;1.50;;;1.40;;
14040;SDS011;7095;51.388;6.196;2023-07-28T14:55:26;1.43;;;1.33;;
14040;SDS011;7095;51.388;6.196;2023-07-28T14:57:56;3.27;;;1.30;;
14040;SDS011;7095;51.388;6.196;2023-07-28T15:00:28;3.10;;;1.87;;
14040;SDS011;7095;51.388;6.196;2023-07-28T15:03:02;2.10;;;1.90;;
14040;SDS011;7095;51.388;6.196;2023-07-28T15:05:32;3.70;;;2.10;;
14040;SDS011;7095;51.388;6.196;2023-07-28T15:08:00;1.77;;;1.67;;
14040;SDS011;7095;51.388;6.196;2023-07-28T15:10:31;1.70;;;1.60;;
14040;SDS011;7095;51.388;6.196;2023-07-28T15:13:01;6.40;;;2.47;;
14040;SDS011;7095;51.388;6.196;2023-07-28T15:15:30;2.30;;;2.10;;
14040;SDS011;7095;51.388;6.196;2023-07-28T15:18:01;3.40;;;1.93;;
14040;SDS011;7095;51.388;6.196;2023-07-28T15:20:32;4.90;;;2.50;;
14040;SDS011;7095;51.388;6.196;2023-07-28T15:23:01;4.30;;;2.67;;
14040;SDS011;7095;51.388;6.196;2023-07-28T15:25:30;3.73;;;3.17;;